Time;durP1;ratioP1;P1;durP2;ratioP2;P2;SDS_P1;SDS_P2;PMS_P1;PMS_P2;Temp;Humidity;BMP_temperature;BMP_pressure;BME280_temperature;BME280_humidity;BME280_pressure;Samples;Min_cycle;Max_cycle;Signal;HPM_P1;HPM_P2
2021/01/07 00:01:04;;;;;;;7.47;6.78;;;2.40;1.00;;;;;;5079500;28;20236;-82
2021/01/07 00:03:39;;;;;;;8.07;7.20;;;2.40;1.00;;;;;;5064081;28;20819;-81
2021/01/07 00:06:14;;;;;;;8.65;7.75;;;2.50;1.00;;;;;;5065204;28;20246;-80
2021/01/07 00:08:41;;;;;;;9.05;7.82;;;2.50;1.00;;;;;;5095012;28;20242;-80
2021/01/07 00:11:09;;;;;;;9.35;7.38;;;2.50;1.00;;;;;;5065892;28;21103;-83
2021/01/07 00:13:36;;;;;;;7.90;6.80;;;2.50;1.00;;;;;;5059626;28;20320;-84
2021/01/07 00:16:03;;;;;;;8.18;6.63;;;2.50;1.00;;;;;;5063378;28;20216;-83
2021/01/07 00:18:30;;;;;;;8.65;6.95;;;2.50;1.00;;;;;;5063687;28;20372;-83
2021/01/07 00:20:57;;;;;;;7.53;6.70;;;2.50;1.00;;;;;;5060877;28;20234;-82
2021/01/07 00:23:25;;;;;;;10.75;7.43;;;2.40;1.00;;;;;;5061357;28;20230;-80
2021/01/07 00:25:53;;;;;;;9.32;7.78;;;2.40;1.00;;;;;;5062414;28;20228;-82
2021/01/07 00:28:21;;;;;;;6.88;6.18;;;2.40;1.00;;;;;;5057919;28;20225;-83
2021/01/07 00:30:51;;;;;;;7.68;6.47;;;2.40;1.00;;;;;;5067153;28;20221;-83
2021/01/07 00:33:18;;;;;;;6.93;6.22;;;2.40;1.00;;;;;;5076819;28;20380;-84
2021/01/07 00:35:45;;;;;;;7.80;6.93;;;2.40;1.00;;;;;;5059690;28;20209;-81
2021/01/07 00:38:12;;;;;;;7.30;6.00;;;2.30;1.00;;;;;;5061140;28;20913;-83
2021/01/07 00:40:39;;;;;;;7.55;6.78;;;2.40;1.00;;;;;;5056493;28;20225;-83
2021/01/07 00:43:06;;;;;;;7.00;6.30;;;2.30;1.00;;;;;;5057984;28;20233;-84
2021/01/07 00:45:33;;;;;;;8.32;6.80;;;2.30;1.00;;;;;;5051734;28;20287;-84
2021/01/07 00:47:59;;;;;;;6.97;6.25;;;2.30;1.00;;;;;;5062527;28;20249;-80
2021/01/07 00:50:26;;;;;;;7.20;5.97;;;2.30;1.00;;;;;;5062322;28;20229;-81
2021/01/07 00:52:53;;;;;;;7.82;6.97;;;2.30;1.00;;;;;;5062458;28;20420;-82
2021/01/07 00:55:19;;;;;;;6.53;5.90;;;2.40;1.00;;;;;;5058353;28;20236;-82
2021/01/07 00:57:50;;;;;;;7.43;6.70;;;2.30;1.00;;;;;;5060727;28;20328;-82
2021/01/07 01:00:20;;;;;;;7.32;6.63;;;2.30;1.00;;;;;;5070053;28;20276;-84
2021/01/07 01:02:47;;;;;;;7.60;6.88;;;2.30;1.00;;;;;;5063193;28;20232;-83
2021/01/07 01:05:14;;;;;;;7.05;6.30;;;2.30;1.00;;;;;;5074495;28;20230;-82
2021/01/07 01:07:41;;;;;;;6.65;5.85;;;2.30;1.00;;;;;;5056272;28;20225;-81
2021/01/07 01:10:09;;;;;;;7.90;6.97;;;2.30;1.00;;;;;;5078669;28;20730;-83
2021/01/07 01:12:36;;;;;;;9.32;6.55;;;2.30;1.00;;;;;;5085124;28;21125;-80
2021/01/07 01:15:06;;;;;;;7.85;7.03;;;2.30;1.00;;;;;;5076938;28;20224;-80
2021/01/07 01:17:33;;;;;;;7.55;6.32;;;2.30;1.00;;;;;;5076314;28;20230;-81
2021/01/07 01:19:59;;;;;;;7.50;6.45;;;2.30;1.00;;;;;;5078966;28;20266;-81
2021/01/07 01:22:31;;;;;;;7.93;7.10;;;2.30;1.00;;;;;;5063495;28;20273;-84
2021/01/07 01:25:00;;;;;;;7.03;6.32;;;2.30;1.00;;;;;;5078708;28;20230;-84
2021/01/07 01:27:27;;;;;;;7.47;6.78;;;2.30;1.00;;;;;;5071076;28;20751;-84
2021/01/07 01:29:54;;;;;;;8.00;6.57;;;2.30;1.00;;;;;;5058993;28;20281;-83
2021/01/07 01:32:23;;;;;;;7.85;6.53;;;2.30;1.00;;;;;;5069986;28;20245;-85
2021/01/07 01:34:50;;;;;;;7.72;6.53;;;2.30;1.00;;;;;;5046109;28;20622;-82
2021/01/07 01:37:17;;;;;;;7.60;5.93;;;2.20;1.00;;;;;;5052185;28;20230;-85
2021/01/07 01:39:43;;;;;;;6.13;5.53;;;2.20;1.00;;;;;;5058649;28;20224;-83
2021/01/07 01:42:12;;;;;;;5.72;5.22;;;2.30;1.00;;;;;;5051640;28;20236;-83
2021/01/07 01:44:38;;;;;;;6.00;5.40;;;2.20;1.00;;;;;;5057826;28;20277;-85
2021/01/07 01:47:05;;;;;;;8.05;6.22;;;2.20;1.00;;;;;;5060130;28;20214;-84
2021/01/07 01:49:32;;;;;;;5.97;5.03;;;2.20;1.00;;;;;;5065191;28;20245;-84
2021/01/07 01:51:59;;;;;;;7.63;6.13;;;2.10;1.00;;;;;;5054554;28;20281;-84
2021/01/07 01:54:26;;;;;;;6.60;5.80;;;2.10;1.00;;;;;;5068767;28;20213;-80
2021/01/07 01:56:54;;;;;;;6.25;5.65;;;2.10;1.00;;;;;;5076637;28;20218;-81
2021/01/07 01:59:23;;;;;;;7.07;5.95;;;2.10;1.00;;;;;;5084223;28;20718;-85
2021/01/07 02:01:52;;;;;;;6.07;5.47;;;2.10;1.00;;;;;;5071196;28;20225;-82
2021/01/07 02:04:18;;;;;;;6.43;5.50;;;2.10;1.00;;;;;;5077266;28;20221;-81
2021/01/07 02:06:47;;;;;;;6.25;5.57;;;2.10;1.00;;;;;;5077115;28;20264;-81
2021/01/07 02:09:14;;;;;;;6.20;5.60;;;2.10;1.00;;;;;;5065680;28;20253;-83
2021/01/07 02:11:42;;;;;;;5.72;5.22;;;2.10;1.00;;;;;;5054151;28;20261;-83
2021/01/07 02:14:09;;;;;;;6.13;5.28;;;2.10;1.00;;;;;;5058097;28;20277;-81
2021/01/07 02:16:35;;;;;;;6.97;6.28;;;2.10;1.00;;;;;;5074772;28;20241;-82
2021/01/07 02:19:01;;;;;;;6.07;5.40;;;2.10;1.00;;;;;;5072178;28;20256;-82
2021/01/07 02:21:29;;;;;;;6.95;6.15;;;2.10;1.00;;;;;;5060304;28;20316;-84
2021/01/07 02:23:56;;;;;;;5.88;5.32;;;2.10;1.00;;;;;;5053616;28;20232;-83
2021/01/07 02:26:23;;;;;;;6.13;5.53;;;2.10;1.00;;;;;;5070541;28;20222;-83
2021/01/07 02:28:50;;;;;;;6.18;4.80;;;2.10;1.00;;;;;;5057926;28;20225;-83
2021/01/07 02:31:18;;;;;;;6.55;5.85;;;2.10;1.00;;;;;;5060813;28;20744;-84
2021/01/07 02:33:44;;;;;;;6.50;5.90;;;2.10;1.00;;;;;;5058540;28;21001;-83
2021/01/07 02:36:12;;;;;;;7.28;6.68;;;2.20;1.00;;;;;;5054463;28;21044;-82
2021/01/07 02:38:40;;;;;;;6.68;5.43;;;2.20;1.00;;;;;;5067660;28;20212;-80
2021/01/07 02:41:07;;;;;;;5.28;4.80;;;2.20;1.00;;;;;;5078373;28;20240;-81
2021/01/07 02:43:34;;;;;;;6.38;5.68;;;2.20;1.00;;;;;;5070810;28;20217;-81
2021/01/07 02:46:00;;;;;;;6.97;5.70;;;2.20;1.00;;;;;;5077860;28;20237;-80
2021/01/07 02:48:26;;;;;;;5.57;5.05;;;2.20;1.00;;;;;;5070094;28;20280;-84
2021/01/07 02:50:53;;;;;;;6.60;6.00;;;2.20;1.00;;;;;;5072496;28;20256;-83
2021/01/07 02:53:19;;;;;;;6.15;5.55;;;2.20;1.00;;;;;;5056908;28;20237;-83
2021/01/07 02:55:47;;;;;;;6.47;5.88;;;2.20;1.00;;;;;;5057152;28;20209;-82
2021/01/07 02:58:13;;;;;;;6.32;5.72;;;2.20;1.00;;;;;;5052919;28;20233;-83
2021/01/07 03:00:39;;;;;;;6.22;5.55;;;2.20;1.00;;;;;;5053189;28;20225;-81
2021/01/07 03:03:06;;;;;;;6.50;5.90;;;2.20;1.00;;;;;;5059730;28;20230;-83
2021/01/07 03:05:32;;;;;;;7.38;6.65;;;2.20;1.00;;;;;;5054776;28;20374;-84
2021/01/07 03:07:59;;;;;;;7.78;6.35;;;2.20;1.00;;;;;;5054001;28;20257;-84
2021/01/07 03:10:26;;;;;;;7.00;5.75;;;2.10;1.00;;;;;;5048352;28;20800;-83
2021/01/07 03:12:54;;;;;;;7.05;5.72;;;2.10;1.00;;;;;;5054788;28;20225;-83
2021/01/07 03:15:20;;;;;;;6.90;6.10;;;2.10;1.00;;;;;;5049065;28;20631;-82
2021/01/07 03:17:47;;;;;;;6.95;6.25;;;2.10;1.00;;;;;;5055840;28;20762;-81
2021/01/07 03:20:14;;;;;;;7.00;6.30;;;2.00;1.00;;;;;;5048028;28;20310;-81
2021/01/07 03:22:41;;;;;;;7.47;5.95;;;2.00;1.00;;;;;;5055895;28;20244;-82
2021/01/07 03:25:09;;;;;;;6.43;5.80;;;2.00;1.00;;;;;;5049596;28;20221;-83
2021/01/07 03:27:36;;;;;;;7.03;6.32;;;2.00;1.00;;;;;;5061032;28;20286;-82
2021/01/07 03:30:05;;;;;;;7.28;6.20;;;2.00;1.00;;;;;;5055725;28;20233;-85
2021/01/07 03:32:31;;;;;;;5.75;5.13;;;2.00;1.00;;;;;;5064347;28;20653;-84
2021/01/07 03:34:58;;;;;;;6.80;6.20;;;2.10;1.00;;;;;;5055386;28;20221;-84
2021/01/07 03:37:24;;;;;;;7.43;6.28;;;2.00;1.00;;;;;;5058496;28;20289;-82
2021/01/07 03:39:50;;;;;;;7.15;5.70;;;2.00;1.00;;;;;;5080924;28;20241;-83
2021/01/07 03:42:17;;;;;;;6.85;6.15;;;2.00;1.00;;;;;;5058021;28;20233;-83
2021/01/07 03:44:43;;;;;;;6.05;5.45;;;2.00;1.00;;;;;;5057806;28;20228;-80
2021/01/07 03:47:10;;;;;;;6.80;5.90;;;2.00;1.00;;;;;;5061647;28;20214;-79
2021/01/07 03:49:37;;;;;;;6.57;5.85;;;2.00;1.00;;;;;;5073169;28;20216;-79
2021/01/07 03:52:03;;;;;;;6.80;6.20;;;2.10;1.00;;;;;;5060893;28;20244;-78
2021/01/07 03:54:30;;;;;;;7.95;5.55;;;2.00;1.00;;;;;;5067019;28;20237;-78
2021/01/07 03:56:56;;;;;;;11.20;7.80;;;2.00;1.00;;;;;;5058699;28;20246;-82
2021/01/07 03:59:23;;;;;;;7.03;5.18;;;2.00;1.00;;;;;;5057092;28;20241;-82
2021/01/07 04:01:49;;;;;;;6.80;5.97;;;2.00;1.00;;;;;;5071032;28;20667;-81
2021/01/07 04:04:16;;;;;;;6.50;5.75;;;2.00;1.00;;;;;;5057589;28;20440;-82
2021/01/07 04:06:42;;;;;;;6.63;5.80;;;2.00;1.00;;;;;;5067950;28;20222;-83
2021/01/07 04:09:09;;;;;;;7.20;6.10;;;2.10;1.00;;;;;;5061865;28;20225;-82
2021/01/07 04:11:35;;;;;;;8.73;6.35;;;2.10;1.00;;;;;;5056661;28;20230;-80
2021/01/07 04:14:01;;;;;;;7.40;5.93;;;2.10;1.00;;;;;;5054923;28;20276;-80
2021/01/07 04:16:28;;;;;;;9.88;6.22;;;2.10;1.00;;;;;;5059879;28;20233;-84
2021/01/07 04:18:54;;;;;;;8.02;6.85;;;2.20;1.00;;;;;;5055228;28;20230;-80
2021/01/07 04:21:21;;;;;;;9.18;6.80;;;2.20;1.00;;;;;;5072078;28;20210;-79
2021/01/07 04:23:48;;;;;;;8.43;6.72;;;2.20;1.00;;;;;;5073868;28;20221;-79
2021/01/07 04:26:15;;;;;;;8.13;6.03;;;2.10;1.00;;;;;;5074170;28;20523;-79
2021/01/07 04:28:42;;;;;;;7.18;5.53;;;2.20;1.00;;;;;;5061643;28;20260;-82
2021/01/07 04:31:09;;;;;;;8.65;6.50;;;2.20;1.00;;;;;;5058611;28;20218;-81
2021/01/07 04:33:35;;;;;;;8.48;6.93;;;2.10;1.00;;;;;;5053015;28;20228;-79
2021/01/07 04:36:01;;;;;;;8.27;7.20;;;2.20;1.00;;;;;;5053420;28;20224;-80
2021/01/07 04:38:28;;;;;;;10.90;8.35;;;2.20;1.00;;;;;;5052650;28;20316;-81
2021/01/07 04:40:55;;;;;;;9.98;7.78;;;2.20;1.00;;;;;;5069575;28;20218;-78
2021/01/07 04:43:21;;;;;;;11.55;8.73;;;2.20;1.00;;;;;;5083970;28;20229;-83
2021/01/07 04:45:48;;;;;;;9.65;8.32;;;2.20;1.00;;;;;;5061910;28;20206;-83
2021/01/07 04:48:14;;;;;;;10.60;7.88;;;2.30;1.00;;;;;;5076818;28;20231;-80
2021/01/07 04:50:40;;;;;;;9.38;8.10;;;2.30;1.00;;;;;;5071884;28;20237;-80
2021/01/07 04:53:07;;;;;;;11.60;8.02;;;2.20;1.00;;;;;;5064376;28;20256;-82
2021/01/07 04:55:34;;;;;;;10.75;7.93;;;2.20;1.00;;;;;;5067351;28;20222;-80
2021/01/07 04:58:00;;;;;;;11.95;9.80;;;2.20;1.00;;;;;;5057375;28;20221;-79
2021/01/07 05:00:29;;;;;;;12.80;10.07;;;2.20;1.00;;;;;;5050064;28;20237;-79
2021/01/07 05:02:56;;;;;;;11.52;9.35;;;2.20;1.00;;;;;;5058387;28;20226;-82
2021/01/07 05:05:22;;;;;;;12.50;9.63;;;2.10;1.00;;;;;;5056358;28;20734;-83
2021/01/07 05:07:49;;;;;;;9.07;8.18;;;2.10;1.00;;;;;;5060867;28;20227;-82
2021/01/07 05:10:16;;;;;;;10.65;8.73;;;2.10;1.00;;;;;;5055295;28;20228;-82
2021/01/07 05:12:43;;;;;;;11.05;8.57;;;2.20;1.00;;;;;;5078312;28;20213;-79
2021/01/07 05:15:11;;;;;;;12.00;9.27;;;2.10;1.00;;;;;;5067871;28;20226;-79
2021/01/07 05:17:39;;;;;;;10.30;8.10;;;2.10;1.00;;;;;;5078968;28;20237;-80
2021/01/07 05:20:10;;;;;;;12.30;9.77;;;2.10;1.00;;;;;;5051051;28;20762;-81
2021/01/07 05:22:38;;;;;;;16.40;12.63;;;2.00;1.00;;;;;;5056901;28;20233;-81
2021/01/07 05:25:09;;;;;;;11.77;8.52;;;2.10;1.00;;;;;;5065662;28;21079;-81
2021/01/07 05:27:37;;;;;;;9.63;8.60;;;2.10;1.00;;;;;;5054245;28;20324;-81
2021/01/07 05:30:07;;;;;;;10.90;8.98;;;2.10;1.00;;;;;;5069137;28;20226;-82
2021/01/07 05:32:35;;;;;;;13.60;10.23;;;2.00;1.00;;;;;;5056875;28;20236;-82
2021/01/07 05:35:02;;;;;;;11.52;9.48;;;2.00;1.00;;;;;;5051633;28;20482;-81
2021/01/07 05:37:33;;;;;;;11.48;9.52;;;2.00;1.00;;;;;;5058449;28;20229;-80
2021/01/07 05:40:00;;;;;;;10.23;8.43;;;2.00;1.00;;;;;;5072159;28;20221;-81
2021/01/07 05:42:26;;;;;;;12.43;9.57;;;2.00;1.00;;;;;;5052841;28;20234;-82
2021/01/07 05:44:55;;;;;;;10.93;8.75;;;2.00;1.00;;;;;;5058491;28;20231;-81
2021/01/07 05:47:27;;;;;;;14.75;10.60;;;1.90;1.00;;;;;;5052854;28;20230;-79
2021/01/07 05:49:58;;;;;;;12.27;9.20;;;1.90;1.00;;;;;;5075028;28;20221;-79
2021/01/07 05:52:29;;;;;;;13.18;9.73;;;2.00;1.00;;;;;;5045035;28;20854;-83
2021/01/07 05:54:56;;;;;;;14.63;11.35;;;1.90;1.00;;;;;;5058885;28;20229;-82
2021/01/07 05:57:25;;;;;;;12.05;10.30;;;1.90;1.00;;;;;;5056138;28;20221;-82
2021/01/07 05:59:53;;;;;;;12.65;9.70;;;1.90;1.00;;;;;;5078930;28;20280;-80
2021/01/07 06:02:20;;;;;;;13.00;9.13;;;1.90;1.00;;;;;;5052035;28;20226;-82
2021/01/07 06:04:50;;;;;;;12.10;9.15;;;1.90;1.00;;;;;;5060344;28;20241;-83
2021/01/07 06:07:16;;;;;;;16.23;9.27;;;2.00;1.00;;;;;;5059194;28;20598;-83
2021/01/07 06:09:45;;;;;;;12.43;8.80;;;2.00;1.00;;;;;;5056869;28;20234;-83
2021/01/07 06:12:13;;;;;;;13.45;10.05;;;1.90;1.00;;;;;;5050562;28;20295;-82
2021/01/07 06:14:41;;;;;;;13.13;9.55;;;1.90;1.00;;;;;;5070293;28;20251;-82
2021/01/07 06:17:08;;;;;;;12.48;9.20;;;1.90;1.00;;;;;;5054895;28;20249;-83
2021/01/07 06:19:37;;;;;;;11.63;9.00;;;1.90;1.00;;;;;;5061344;28;20360;-82
2021/01/07 06:22:10;;;;;;;13.65;9.48;;;1.90;1.00;;;;;;5054135;28;20229;-80
2021/01/07 06:24:39;;;;;;;11.63;8.13;;;1.90;1.00;;;;;;5059220;28;20228;-85
2021/01/07 06:27:25;;;;;;;13.40;9.77;;;1.90;1.00;;;;;;5058657;28;20318;-82
2021/01/07 06:29:54;;;;;;;12.27;10.00;;;2.00;1.00;;;;;;5070899;28;20213;-82
2021/01/07 06:32:22;;;;;;;11.48;9.45;;;2.00;1.00;;;;;;5067056;28;20236;-79
2021/01/07 06:34:51;;;;;;;12.85;10.13;;;1.90;1.00;;;;;;5071972;28;20233;-82
2021/01/07 06:37:31;;;;;;;13.55;11.18;;;2.00;1.00;;;;;;5065450;28;20209;-84
2021/01/07 06:39:58;;;;;;;10.68;9.02;;;2.00;1.00;;;;;;5080405;28;20206;-80
2021/01/07 06:42:25;;;;;;;12.48;9.15;;;2.10;1.00;;;;;;5077053;28;20244;-78
2021/01/07 06:44:52;;;;;;;12.90;9.43;;;2.00;1.00;;;;;;5075379;28;20224;-79
2021/01/07 06:47:20;;;;;;;11.30;10.10;;;2.00;1.00;;;;;;5068019;28;20316;-80
2021/01/07 06:49:49;;;;;;;13.02;9.57;;;2.00;1.00;;;;;;5053070;28;20321;-85
2021/01/07 06:52:16;;;;;;;14.95;9.65;;;1.90;1.00;;;;;;5073745;28;20275;-81
2021/01/07 06:54:45;;;;;;;12.68;8.88;;;1.90;1.00;;;;;;5056977;28;20275;-81
2021/01/07 06:57:14;;;;;;;11.57;9.70;;;1.90;1.00;;;;;;5061111;28;20221;-81
2021/01/07 06:59:56;;;;;;;11.50;9.07;;;1.90;1.00;;;;;;5066201;28;20331;-83
2021/01/07 07:02:23;;;;;;;17.85;12.45;;;2.00;1.00;;;;;;5074992;28;20229;-81
2021/01/07 07:04:59;;;;;;;12.93;9.60;;;2.00;1.00;;;;;;5072422;28;20279;-81
2021/01/07 07:07:59;;;;;;;12.32;8.95;;;2.00;1.00;;;;;;5063756;28;20269;-81
2021/01/07 07:10:56;;;;;;;12.77;10.43;;;2.00;1.00;;;;;;5056618;28;20225;-79
2021/01/07 07:13:25;;;;;;;12.50;9.77;;;2.00;1.00;;;;;;5091619;28;20271;-80
2021/01/07 07:15:52;;;;;;;14.43;9.50;;;2.00;1.00;;;;;;5072518;28;20227;-86
2021/01/07 07:18:33;;;;;;;13.35;9.85;;;2.00;1.00;;;;;;5081865;28;20232;-80
2021/01/07 07:21:14;;;;;;;14.57;10.25;;;2.00;1.00;;;;;;5052007;28;20216;-82
2021/01/07 07:23:42;;;;;;;11.75;9.60;;;2.00;1.00;;;;;;5060159;28;20233;-84
2021/01/07 07:26:13;;;;;;;12.48;9.05;;;2.10;1.00;;;;;;5070082;28;20233;-83
2021/01/07 07:28:44;;;;;;;11.40;9.30;;;2.00;1.00;;;;;;5089435;28;20283;-84
2021/01/07 07:31:11;;;;;;;15.43;10.73;;;2.00;1.00;;;;;;5066013;28;20232;-84
2021/01/07 07:33:40;;;;;;;11.98;9.18;;;2.10;1.00;;;;;;5064779;28;20229;-82
2021/01/07 07:36:09;;;;;;;13.02;9.52;;;2.10;1.00;;;;;;5066879;28;20256;-84
2021/01/07 07:38:39;;;;;;;14.45;10.02;;;2.10;1.00;;;;;;5071914;28;20228;-81
2021/01/07 07:41:07;;;;;;;13.68;9.43;;;2.20;1.00;;;;;;5086808;28;20229;-84
2021/01/07 07:43:36;;;;;;;10.60;8.93;;;2.20;1.00;;;;;;5075866;28;20233;-84
2021/01/07 07:46:06;;;;;;;13.38;9.57;;;2.20;1.00;;;;;;5060246;28;20246;-84
2021/01/07 07:48:35;;;;;;;12.18;10.38;;;2.20;1.00;;;;;;5078505;28;20225;-82
2021/01/07 07:51:06;;;;;;;12.77;9.60;;;2.10;1.00;;;;;;5060377;28;21185;-83
2021/01/07 07:53:42;;;;;;;12.80;10.57;;;2.20;1.00;;;;;;5057882;28;20260;-83
2021/01/07 07:56:22;;;;;;;12.57;10.05;;;2.30;1.00;;;;;;5054257;28;20240;-84
2021/01/07 07:59:09;;;;;;;11.40;9.07;;;2.30;1.00;;;;;;5062160;28;20266;-82
2021/01/07 08:01:40;;;;;;;11.57;9.65;;;2.20;1.00;;;;;;5054471;28;20237;-82
2021/01/07 08:04:11;;;;;;;12.98;9.82;;;2.20;1.00;;;;;;5063490;28;20233;-84
2021/01/07 08:06:47;;;;;;;13.63;10.10;;;2.20;1.00;;;;;;5051243;28;20325;-87
2021/01/07 08:09:18;;;;;;;13.95;10.43;;;2.20;1.00;;;;;;5061186;28;20293;-84
2021/01/07 08:11:49;;;;;;;13.38;9.55;;;2.20;1.00;;;;;;5058951;28;20234;-84
2021/01/07 08:14:19;;;;;;;14.18;10.52;;;2.20;1.00;;;;;;5065009;28;20228;-81
2021/01/07 08:16:46;;;;;;;12.40;9.13;;;2.20;1.00;;;;;;5053995;28;20222;-83
2021/01/07 08:19:21;;;;;;;13.75;10.30;;;2.20;1.00;;;;;;5077539;28;20222;-82
2021/01/07 08:21:49;;;;;;;9.70;8.38;;;2.30;1.00;;;;;;5055760;28;20228;-80
2021/01/07 08:24:17;;;;;;;12.85;10.20;;;2.20;1.00;;;;;;5060310;28;20230;-83
2021/01/07 08:26:46;;;;;;;12.68;9.43;;;2.20;1.00;;;;;;5069865;28;20224;-81
2021/01/07 08:29:14;;;;;;;11.98;9.18;;;2.20;1.00;;;;;;5073610;28;20214;-81
2021/01/07 08:31:46;;;;;;;15.93;10.38;;;2.20;1.00;;;;;;5077518;28;20201;-78
2021/01/07 08:34:17;;;;;;;12.48;10.15;;;2.20;1.00;;;;;;5076219;28;20229;-80
2021/01/07 08:36:44;;;;;;;13.88;11.57;;;2.20;1.00;;;;;;5084318;28;20216;-80
2021/01/07 08:39:14;;;;;;;13.38;10.20;;;2.20;1.00;;;;;;5069935;28;20248;-80
2021/01/07 08:41:43;;;;;;;12.95;10.80;;;2.30;1.00;;;;;;5065565;28;20213;-77
2021/01/07 08:44:09;;;;;;;15.60;12.80;;;2.20;1.00;;;;;;5073326;28;20996;-80
2021/01/07 08:46:39;;;;;;;15.90;11.07;;;2.20;1.00;;;;;;5057795;28;20315;-81
2021/01/07 08:49:07;;;;;;;12.13;9.50;;;2.30;1.00;;;;;;5054135;28;20233;-82
2021/01/07 08:51:39;;;;;;;12.40;9.85;;;2.30;1.00;;;;;;5059320;28;20209;-80
2021/01/07 08:54:11;;;;;;;10.52;8.10;;;2.30;1.00;;;;;;5070101;28;20244;-81
2021/01/07 08:56:38;;;;;;;11.50;8.93;;;2.30;1.00;;;;;;5058596;28;20288;-81
2021/01/07 08:59:29;;;;;;;13.68;11.23;;;2.30;1.00;;;;;;5053858;28;20226;-82
2021/01/07 09:01:58;;;;;;;12.57;9.05;;;2.30;1.00;;;;;;5060449;28;20229;-79
2021/01/07 09:04:32;;;;;;;12.65;9.48;;;2.40;1.00;;;;;;5054059;28;20253;-81
2021/01/07 09:07:05;;;;;;;13.30;9.82;;;2.40;1.00;;;;;;5058851;28;20229;-83
2021/01/07 09:09:43;;;;;;;10.27;8.43;;;2.40;1.00;;;;;;5055709;28;20228;-83
2021/01/07 09:12:15;;;;;;;9.65;8.18;;;2.50;1.00;;;;;;5062207;28;20249;-79
2021/01/07 09:14:53;;;;;;;10.35;7.72;;;2.40;1.00;;;;;;5069060;28;20229;-82
2021/01/07 09:17:21;;;;;;;11.13;8.02;;;2.40;1.00;;;;;;5065093;28;20241;-83
2021/01/07 09:20:17;;;;;;;14.95;8.25;;;2.40;1.00;;;;;;5127900;22;20239;-83
2021/01/07 09:22:47;;;;;;;9.20;8.00;;;2.50;1.00;;;;;;5119639;27;20234;-84
2021/01/07 09:25:17;;;;;;;10.00;7.43;;;2.50;1.00;;;;;;5101030;28;20236;-83
2021/01/07 09:27:50;;;;;;;11.20;8.18;;;2.50;1.00;;;;;;5103652;28;20276;-84
2021/01/07 09:33:10;;;;;;;10.27;8.52;;;2.50;1.00;;;;;;5086424;28;20288;-83
2021/01/07 09:35:46;;;;;;;13.90;8.45;;;2.50;1.00;;;;;;5081311;28;20227;-84
2021/01/07 09:38:13;;;;;;;9.88;7.97;;;2.50;1.00;;;;;;5088927;28;20229;-82
2021/01/07 09:40:45;;;;;;;10.50;7.28;;;2.60;1.00;;;;;;5086226;28;20224;-84
2021/01/07 09:43:12;;;;;;;11.25;8.07;;;2.60;1.00;;;;;;5095515;28;21025;-82
2021/01/07 09:45:41;;;;;;;9.25;6.75;;;2.60;1.00;;;;;;5079896;28;21018;-82
2021/01/07 09:48:09;;;;;;;10.23;7.80;;;2.60;1.00;;;;;;5089319;28;20212;-83
2021/01/07 09:50:39;;;;;;;11.30;7.68;;;2.60;1.00;;;;;;5085169;28;20220;-82
2021/01/07 09:53:08;;;;;;;10.48;6.95;;;2.60;1.00;;;;;;5100880;27;20232;-83
2021/01/07 09:55:37;;;;;;;8.90;6.20;;;2.60;1.00;;;;;;5083839;27;20233;-83
2021/01/07 09:58:07;;;;;;;11.73;7.55;;;2.60;1.00;;;;;;5079345;28;20233;-83
2021/01/07 10:00:36;;;;;;;10.20;7.47;;;2.60;1.00;;;;;;5084762;28;21221;-84
2021/01/07 10:03:05;;;;;;;11.05;7.57;;;2.60;1.00;;;;;;5093640;28;20254;-82
2021/01/07 10:05:38;;;;;;;9.25;6.72;;;2.60;1.00;;;;;;5088393;27;20241;-83
2021/01/07 10:08:08;;;;;;;9.15;7.75;;;2.60;1.00;;;;;;5093307;28;20214;-81
2021/01/07 10:10:39;;;;;;;9.30;8.27;;;2.70;1.00;;;;;;5093632;27;20212;-82
2021/01/07 10:13:10;;;;;;;12.43;7.05;;;2.70;1.00;;;;;;5095655;28;20247;-81
2021/01/07 10:15:40;;;;;;;9.40;7.80;;;2.60;1.00;;;;;;5090421;28;20276;-81
2021/01/07 10:18:06;;;;;;;10.50;7.68;;;2.60;1.00;;;;;;5081966;28;20251;-80
2021/01/07 10:20:35;;;;;;;12.05;8.75;;;2.70;1.00;;;;;;5086640;28;20232;-81
2021/01/07 10:23:09;;;;;;;9.65;8.63;;;2.70;1.00;;;;;;5082859;28;20279;-85
2021/01/07 10:25:37;;;;;;;10.43;7.00;;;2.80;1.00;;;;;;5089776;28;20239;-80
2021/01/07 10:28:11;;;;;;;9.13;7.55;;;2.80;1.00;;;;;;5080343;28;20865;-82
2021/01/07 10:30:41;;;;;;;8.63;7.65;;;2.80;1.00;;;;;;5086953;28;20228;-83
2021/01/07 10:33:16;;;;;;;9.55;7.25;;;2.80;1.00;;;;;;5075881;28;20246;-83
2021/01/07 10:35:46;;;;;;;9.93;7.13;;;2.80;1.00;;;;;;5084778;28;20213;-84
2021/01/07 10:38:35;;;;;;;9.55;7.95;;;2.80;1.00;;;;;;5084693;28;20219;-84
2021/01/07 10:41:13;;;;;;;9.55;6.75;;;2.80;1.00;;;;;;5084330;28;20217;-82
2021/01/07 10:43:46;;;;;;;10.02;7.40;;;2.80;1.00;;;;;;5080905;28;20233;-82
2021/01/07 10:46:27;;;;;;;10.57;6.70;;;2.80;1.00;;;;;;5087304;28;20231;-82
2021/01/07 10:49:04;;;;;;;9.43;6.25;;;2.80;1.00;;;;;;5085279;28;20250;-81
2021/01/07 10:55:10;;;;;;;7.57;6.18;;;2.80;1.00;;;;;;5082581;28;20228;-83
2021/01/07 10:58:01;;;;;;;6.93;6.03;;;2.80;1.00;;;;;;5099672;28;20225;-82
2021/01/07 11:00:38;;;;;;;7.70;6.90;;;2.80;1.00;;;;;;5099629;27;20228;-82
2021/01/07 11:03:27;;;;;;;7.30;5.55;;;2.80;1.00;;;;;;5085477;28;20213;-84
2021/01/07 11:05:59;;;;;;;7.00;6.30;;;2.80;1.00;;;;;;5103197;27;20232;-82
2021/01/07 11:08:44;;;;;;;10.35;7.00;;;2.80;1.00;;;;;;5096268;27;20229;-83
2021/01/07 11:11:21;;;;;;;10.35;7.70;;;2.80;1.00;;;;;;5100325;28;20284;-83
2021/01/07 11:14:16;;;;;;;8.50;6.70;;;2.80;1.00;;;;;;5095621;27;20258;-82
2021/01/07 11:17:08;;;;;;;9.65;7.30;;;2.80;1.00;;;;;;5081176;28;21787;-83
2021/01/07 11:19:54;;;;;;;10.63;7.10;;;2.80;1.00;;;;;;5083790;28;20258;-81
2021/01/07 11:22:39;;;;;;;7.22;6.53;;;2.80;1.00;;;;;;5088854;28;20247;-84
2021/01/07 11:25:18;;;;;;;9.90;7.18;;;2.80;1.00;;;;;;5081957;28;20295;-83
2021/01/07 11:28:21;;;;;;;10.07;6.60;;;2.80;1.00;;;;;;5085800;28;20233;-83
2021/01/07 11:30:52;;;;;;;10.45;7.00;;;2.80;1.00;;;;;;5090395;28;20236;-84
2021/01/07 11:33:40;;;;;;;8.93;6.20;;;2.90;1.00;;;;;;5096648;28;20232;-83
2021/01/07 11:36:19;;;;;;;9.10;7.07;;;2.90;1.00;;;;;;5079826;28;20225;-83
2021/01/07 11:39:12;;;;;;;;;;;;;;;;;;;;;
2021/01/07 11:41:53;;;;;;;6.60;5.47;;;2.80;1.00;;;;;;5083909;28;20237;-83
2021/01/07 11:44:37;;;;;;;10.88;6.97;;;2.90;1.00;;;;;;5080360;28;20237;-84
2021/01/07 11:47:08;;;;;;;8.27;6.30;;;2.80;1.00;;;;;;5085580;28;20247;-81
2021/01/07 11:49:39;;;;;;;6.72;6.00;;;2.80;1.00;;;;;;5069725;28;20812;-85
2021/01/07 11:52:11;;;;;;;7.65;6.85;;;2.70;1.00;;;;;;5084221;28;20231;-81
2021/01/07 11:54:49;;;;;;;7.65;6.47;;;2.70;1.00;;;;;;5087139;28;20229;-83
2021/01/07 11:57:22;;;;;;;7.72;6.43;;;2.70;1.00;;;;;;5091665;28;20225;-87
2021/01/07 11:59:55;;;;;;;8.75;7.15;;;2.70;1.00;;;;;;5082208;28;20239;-85
2021/01/07 12:02:40;;;;;;;10.07;8.20;;;2.70;1.00;;;;;;5089636;28;20417;-83
2021/01/07 12:05:09;;;;;;;8.45;7.38;;;2.70;1.00;;;;;;5077963;28;20282;-83
2021/01/07 12:08:01;;;;;;;10.80;8.15;;;2.70;1.00;;;;;;5084791;28;20235;-83
2021/01/07 12:10:29;;;;;;;9.85;7.30;;;2.70;1.00;;;;;;5077003;28;20233;-82
2021/01/07 12:13:05;;;;;;;10.25;8.00;;;2.70;1.00;;;;;;5087454;28;20237;-81
2021/01/07 12:15:37;;;;;;;7.40;6.65;;;2.70;1.00;;;;;;5090855;27;22529;-81
2021/01/07 12:18:07;;;;;;;11.20;8.40;;;2.70;1.00;;;;;;5103900;27;20232;-82
2021/01/07 12:20:36;;;;;;;10.23;8.88;;;2.70;1.00;;;;;;5092610;27;20432;-81
2021/01/07 12:23:06;;;;;;;10.00;7.93;;;2.70;1.00;;;;;;5105672;27;20229;-81
2021/01/07 12:25:41;;;;;;;10.27;8.57;;;2.70;1.00;;;;;;5103259;27;20254;-81
2021/01/07 12:28:13;;;;;;;9.32;8.40;;;2.60;1.00;;;;;;5089919;28;20216;-84
2021/01/07 12:30:58;;;;;;;12.80;9.30;;;2.50;1.00;;;;;;5087440;28;21231;-82
2021/01/07 12:33:53;;;;;;;7.85;7.03;;;2.60;1.00;;;;;;5085222;28;20260;-84
2021/01/07 12:36:36;;;;;;;10.85;8.77;;;2.60;1.00;;;;;;5068279;28;20698;-84
2021/01/07 12:39:32;;;;;;;9.70;8.80;;;2.50;1.00;;;;;;5078353;28;20217;-80
2021/01/07 12:42:08;;;;;;;9.85;7.93;;;2.50;1.00;;;;;;5079106;28;20239;-85
2021/01/07 12:44:41;;;;;;;8.80;7.90;;;2.50;1.00;;;;;;5082170;28;20224;-82
2021/01/07 12:47:22;;;;;;;10.98;9.43;;;2.50;1.00;;;;;;5076347;28;20277;-83
2021/01/07 12:49:53;;;;;;;8.95;7.85;;;2.50;1.00;;;;;;5079442;28;20239;-81
2021/01/07 12:52:20;;;;;;;12.40;8.85;;;2.50;1.00;;;;;;5081466;28;20224;-82
2021/01/07 12:54:55;;;;;;;9.88;8.43;;;2.40;1.00;;;;;;5086841;28;20233;-82
2021/01/07 12:57:27;;;;;;;19.63;17.50;;;2.40;1.00;;;;;;5083306;28;20225;-83
2021/01/07 13:00:01;;;;;;;11.25;8.98;;;2.40;1.00;;;;;;5091642;28;20227;-83
2021/01/07 13:02:39;;;;;;;11.68;9.52;;;2.40;1.00;;;;;;5082681;28;20220;-83
2021/01/07 13:05:23;;;;;;;10.10;8.82;;;2.40;1.00;;;;;;5093552;28;20232;-82
2021/01/07 13:08:01;;;;;;;10.45;8.65;;;2.40;1.00;;;;;;5081176;28;20233;-82
2021/01/07 13:10:29;;;;;;;9.80;8.80;;;2.40;1.00;;;;;;5092667;28;20297;-84
2021/01/07 13:12:59;;;;;;;10.70;9.55;;;2.30;1.00;;;;;;5080769;28;20224;-81
2021/01/07 13:15:29;;;;;;;10.43;8.45;;;2.30;1.00;;;;;;5096455;28;20231;-84
2021/01/07 13:17:57;;;;;;;9.23;8.30;;;2.30;1.00;;;;;;5086901;28;20236;-84
2021/01/07 13:20:24;;;;;;;9.75;8.73;;;2.30;1.00;;;;;;5098338;28;20229;-83
2021/01/07 13:22:55;;;;;;;10.25;8.85;;;2.40;1.00;;;;;;5094665;28;20214;-82
2021/01/07 13:25:34;;;;;;;10.18;8.65;;;2.40;1.00;;;;;;5089871;28;21089;-84
2021/01/07 13:28:01;;;;;;;9.73;8.73;;;2.40;1.00;;;;;;5086612;28;20230;-83